Terminal Aerodrome Forecast
Issued by NWS Shreveport, LA

Home | Current Version | Previous Version | Text Only | Print | Product List | Glossary On
Versions: 1 2 3 4 5 6 7 8 9 10 11 12 13 14 15 16 17 18 19
000
FTUS44 KSHV 310500
TAFLFK
TAF
KLFK 310535Z 3106/0106 08004KT P6SM OVC150
     FM311500 13007KT P6SM BKN100 OVC150
     FM311900 13007KT P6SM BKN035 OVC150
     FM010400 14007KT 3SM -RA BR OVC030=

USA.gov is the U.S. government's official web portal to all federal, state and local government web resources and services.